Time;durP1;ratioP1;P1;durP2;ratioP2;P2;SDS_P1;SDS_P2;PMS_P1;PMS_P2;Temp;Humidity;BMP_temperature;BMP_pressure;BME280_temperature;BME280_humidity;BME280_pressure;Samples;Min_cycle;Max_cycle;Signal;HPM_P1;HPM_P2
2024/03/30 00:01:47;;;;;;;4.68;2.35;;;;;;;;;;5024587;28;20024;-69
2024/03/30 00:04:13;;;;;;;5.53;2.50;;;;;;;;;;5027023;28;20028;-68
2024/03/30 00:06:38;;;;;;;5.85;2.78;;;;;;;;;;5029966;28;20032;-69
2024/03/30 00:09:03;;;;;;;4.97;2.00;;;;;;;;;;5029110;28;20017;-69
2024/03/30 00:11:28;;;;;;;4.17;2.13;;;;;;;;;;5028443;28;20267;-69
2024/03/30 00:13:54;;;;;;;5.00;1.95;;;;;;;;;;5028311;28;20267;-69
2024/03/30 00:16:19;;;;;;;5.03;2.00;;;;;;;;;;5030557;28;20034;-69
2024/03/30 00:18:45;;;;;;;9.13;2.63;;;;;;;;;;5030417;28;20424;-69
2024/03/30 00:21:14;;;;;;;3.53;2.10;;;;;;;;;;5029151;28;20036;-69
2024/03/30 00:23:39;;;;;;;5.65;2.15;;;;;;;;;;5021814;28;20030;-69
2024/03/30 00:26:04;;;;;;;4.97;2.33;;;;;;;;;;5028719;28;20031;-69
2024/03/30 00:28:30;;;;;;;5.25;2.60;;;;;;;;;;5030022;28;20017;-69
2024/03/30 00:30:55;;;;;;;4.82;2.38;;;;;;;;;;5029383;28;20101;-69
2024/03/30 00:33:20;;;;;;;9.13;2.40;;;;;;;;;;5030383;28;20100;-69
2024/03/30 00:35:46;;;;;;;3.03;2.13;;;;;;;;;;5030129;28;20033;-69
2024/03/30 00:38:12;;;;;;;6.43;2.45;;;;;;;;;;5029980;28;20311;-69
2024/03/30 00:40:38;;;;;;;5.30;2.90;;;;;;;;;;5028493;28;20095;-69
2024/03/30 00:43:03;;;;;;;3.08;2.03;;;;;;;;;;5029399;28;20475;-69
2024/03/30 00:45:29;;;;;;;3.88;2.13;;;;;;;;;;5029541;28;20468;-69
2024/03/30 00:47:55;;;;;;;4.57;2.58;;;;;;;;;;5029897;28;20045;-69
2024/03/30 00:50:21;;;;;;;5.43;2.45;;;;;;;;;;5029044;28;20742;-69
2024/03/30 00:52:46;;;;;;;4.25;2.22;;;;;;;;;;5029859;28;20377;-69
2024/03/30 00:55:11;;;;;;;6.75;3.38;;;;;;;;;;5029498;28;20036;-69
2024/03/30 00:57:42;;;;;;;6.53;2.60;;;;;;;;;;5029580;28;20037;-69
2024/03/30 01:00:11;;;;;;;3.83;2.42;;;;;;;;;;5029072;28;20252;-69
2024/03/30 01:02:40;;;;;;;5.57;2.50;;;;;;;;;;5029569;28;20024;-69
2024/03/30 01:05:05;;;;;;;4.97;2.80;;;;;;;;;;5028568;28;20018;-69
2024/03/30 01:07:30;;;;;;;5.70;2.75;;;;;;;;;;5027656;28;20021;-69
2024/03/30 01:09:56;;;;;;;5.63;2.92;;;;;;;;;;5028910;28;20401;-69
2024/03/30 01:12:21;;;;;;;4.97;2.50;;;;;;;;;;5028349;28;20052;-69
2024/03/30 01:14:46;;;;;;;6.82;2.50;;;;;;;;;;5028235;28;20029;-69
2024/03/30 01:17:12;;;;;;;5.63;2.05;;;;;;;;;;5029067;28;20578;-69
2024/03/30 01:19:37;;;;;;;4.47;2.45;;;;;;;;;;5029183;28;20025;-69
2024/03/30 01:22:02;;;;;;;4.72;2.80;;;;;;;;;;5026248;28;20021;-69
2024/03/30 01:24:28;;;;;;;6.63;2.70;;;;;;;;;;5028783;28;20040;-69
2024/03/30 01:26:55;;;;;;;6.47;3.03;;;;;;;;;;5028693;28;20040;-69
2024/03/30 01:29:23;;;;;;;7.50;2.95;;;;;;;;;;5029268;28;20381;-69
2024/03/30 01:31:49;;;;;;;10.30;3.70;;;;;;;;;;5024499;28;20139;-70
2024/03/30 01:34:14;;;;;;;7.85;3.08;;;;;;;;;;5029082;28;20048;-69
2024/03/30 01:36:39;;;;;;;8.60;2.95;;;;;;;;;;5028377;28;20030;-69
2024/03/30 01:39:04;;;;;;;6.47;3.30;;;;;;;;;;5028755;28;20071;-69
2024/03/30 01:41:29;;;;;;;6.70;2.80;;;;;;;;;;5028883;28;20563;-69
2024/03/30 01:43:55;;;;;;;3.50;2.33;;;;;;;;;;5028549;28;20280;-70
2024/03/30 01:46:20;;;;;;;8.40;2.80;;;;;;;;;;5029021;28;20822;-69
2024/03/30 01:48:45;;;;;;;7.25;3.40;;;;;;;;;;5029082;28;20252;-69
2024/03/30 01:51:10;;;;;;;7.00;3.60;;;;;;;;;;5028249;28;20036;-69
2024/03/30 01:53:36;;;;;;;8.30;3.57;;;;;;;;;;5027558;28;20713;-69
2024/03/30 01:56:01;;;;;;;5.50;3.60;;;;;;;;;;5027443;28;20355;-69
2024/03/30 01:58:27;;;;;;;13.38;3.40;;;;;;;;;;5033105;28;20029;-69
2024/03/30 02:00:52;;;;;;;10.85;4.00;;;;;;;;;;5028400;28;20076;-69
2024/03/30 02:03:20;;;;;;;8.45;3.67;;;;;;;;;;5026601;28;20057;-69
2024/03/30 02:05:45;;;;;;;14.82;3.58;;;;;;;;;;5028965;28;20105;-69
2024/03/30 02:08:11;;;;;;;10.93;3.55;;;;;;;;;;5028972;28;20461;-69
2024/03/30 02:10:36;;;;;;;8.65;3.78;;;;;;;;;;5028036;28;20713;-69
2024/03/30 02:13:02;;;;;;;11.13;4.18;;;;;;;;;;5027087;28;20033;-69
2024/03/30 02:15:27;;;;;;;8.80;3.75;;;;;;;;;;5028235;28;20025;-69
2024/03/30 02:17:52;;;;;;;5.38;3.58;;;;;;;;;;5027901;28;20022;-69
2024/03/30 02:20:17;;;;;;;9.47;3.50;;;;;;;;;;5026454;28;20169;-69
2024/03/30 02:22:49;;;;;;;5.57;3.67;;;;;;;;;;5028641;28;20351;-70
2024/03/30 02:25:15;;;;;;;8.25;3.90;;;;;;;;;;5028710;28;20748;-69
2024/03/30 02:27:40;;;;;;;6.18;3.72;;;;;;;;;;5027474;28;20044;-69
2024/03/30 02:30:06;;;;;;;8.13;4.57;;;;;;;;;;5026008;28;20021;-69
2024/03/30 02:32:31;;;;;;;10.43;4.72;;;;;;;;;;5028579;28;20543;-69
2024/03/30 02:34:56;;;;;;;8.80;4.50;;;;;;;;;;5031395;28;20113;-69
2024/03/30 02:37:21;;;;;;;6.87;3.90;;;;;;;;;;5032020;28;20378;-69
2024/03/30 02:39:47;;;;;;;8.50;3.70;;;;;;;;;;5027126;28;21672;-69
2024/03/30 02:42:12;;;;;;;13.27;4.83;;;;;;;;;;5031680;28;20303;-69
2024/03/30 02:44:37;;;;;;;8.20;3.77;;;;;;;;;;5032356;28;20326;-69
2024/03/30 02:47:02;;;;;;;7.57;4.50;;;;;;;;;;5031322;28;20779;-69
2024/03/30 02:49:27;;;;;;;7.88;4.43;;;;;;;;;;5031424;28;20466;-69
2024/03/30 02:51:53;;;;;;;7.63;4.03;;;;;;;;;;5031729;28;20028;-69
2024/03/30 02:54:18;;;;;;;8.33;3.60;;;;;;;;;;5032214;28;20029;-69
2024/03/30 02:56:43;;;;;;;10.50;4.07;;;;;;;;;;5032143;28;20354;-69
2024/03/30 02:59:08;;;;;;;6.53;3.73;;;;;;;;;;5028482;28;20109;-69
2024/03/30 03:01:36;;;;;;;11.90;3.50;;;;;;;;;;5031217;28;20284;-69
2024/03/30 03:04:02;;;;;;;6.97;4.18;;;;;;;;;;5031724;28;20636;-69
2024/03/30 03:06:28;;;;;;;7.30;3.58;;;;;;;;;;5031686;28;20020;-69
2024/03/30 03:08:53;;;;;;;4.47;3.00;;;;;;;;;;5031681;28;20018;-69
2024/03/30 03:11:18;;;;;;;6.47;3.40;;;;;;;;;;5030776;28;20696;-69
2024/03/30 03:13:43;;;;;;;7.00;3.53;;;;;;;;;;5031444;28;20272;-69
2024/03/30 03:16:08;;;;;;;8.10;3.47;;;;;;;;;;5028567;28;20322;-69
2024/03/30 03:18:34;;;;;;;5.55;3.22;;;;;;;;;;5031497;28;20252;-69
2024/03/30 03:20:59;;;;;;;7.43;3.07;;;;;;;;;;5027373;28;20029;-69
2024/03/30 03:23:25;;;;;;;8.38;2.70;;;;;;;;;;5031201;28;20283;-69
2024/03/30 03:25:51;;;;;;;7.13;3.40;;;;;;;;;;5031605;28;20455;-69
2024/03/30 03:28:16;;;;;;;9.38;3.58;;;;;;;;;;5031050;28;20021;-69
2024/03/30 03:30:41;;;;;;;7.32;3.58;;;;;;;;;;5025759;28;20072;-69
2024/03/30 03:33:06;;;;;;;7.07;2.87;;;;;;;;;;5031510;28;20083;-69
2024/03/30 03:35:31;;;;;;;6.60;3.40;;;;;;;;;;5031098;28;20348;-69
2024/03/30 03:37:57;;;;;;;5.63;2.60;;;;;;;;;;5031398;28;20381;-69
2024/03/30 03:40:22;;;;;;;5.93;3.17;;;;;;;;;;5029758;28;20268;-69
2024/03/30 03:42:47;;;;;;;6.27;3.63;;;;;;;;;;5028928;28;20683;-69
2024/03/30 03:45:12;;;;;;;7.90;2.73;;;;;;;;;;5030371;28;20260;-69
2024/03/30 03:47:37;;;;;;;6.95;3.55;;;;;;;;;;5030211;28;20307;-69
2024/03/30 03:50:03;;;;;;;9.40;3.33;;;;;;;;;;5030222;28;20013;-69
2024/03/30 03:52:28;;;;;;;14.18;3.40;;;;;;;;;;5030557;28;20267;-69
2024/03/30 03:54:53;;;;;;;5.63;3.40;;;;;;;;;;5030585;28;20025;-69
2024/03/30 03:57:18;;;;;;;5.53;3.13;;;;;;;;;;5029686;28;20619;-69
2024/03/30 03:59:43;;;;;;;6.97;2.73;;;;;;;;;;5029944;28;20307;-69
2024/03/30 04:02:08;;;;;;;8.60;3.00;;;;;;;;;;5028626;28;20302;-69
2024/03/30 04:04:34;;;;;;;9.13;2.97;;;;;;;;;;5030455;28;20763;-69
2024/03/30 04:06:59;;;;;;;5.90;2.87;;;;;;;;;;5030091;28;20335;-69
2024/03/30 04:09:24;;;;;;;6.30;2.95;;;;;;;;;;5029405;28;20604;-68
2024/03/30 04:11:49;;;;;;;6.63;2.60;;;;;;;;;;5026407;28;20495;-69
2024/03/30 04:14:14;;;;;;;8.65;3.13;;;;;;;;;;5029963;28;20263;-69
2024/03/30 04:16:40;;;;;;;4.97;2.73;;;;;;;;;;5030463;28;20022;-69
2024/03/30 04:19:05;;;;;;;5.45;3.58;;;;;;;;;;5030432;28;20314;-69
2024/03/30 04:21:30;;;;;;;5.97;3.60;;;;;;;;;;5029911;28;20548;-69
2024/03/30 04:23:55;;;;;;;8.80;3.45;;;;;;;;;;5027001;28;20288;-69
2024/03/30 04:26:20;;;;;;;10.77;4.13;;;;;;;;;;5029836;28;20127;-69
2024/03/30 04:28:46;;;;;;;7.13;3.83;;;;;;;;;;5030358;28;20029;-69
2024/03/30 04:31:11;;;;;;;6.38;3.45;;;;;;;;;;5029287;28;20299;-69
2024/03/30 04:33:36;;;;;;;13.10;3.97;;;;;;;;;;5030568;28;20021;-69
2024/03/30 04:36:03;;;;;;;7.85;3.75;;;;;;;;;;5030089;28;20399;-69
2024/03/30 04:38:28;;;;;;;8.43;3.58;;;;;;;;;;5030149;28;20321;-69
2024/03/30 04:41:03;;;;;;;7.53;3.58;;;;;;;;;;5029721;28;20031;-69
2024/03/30 04:43:29;;;;;;;6.43;3.05;;;;;;;;;;5026707;28;20044;-69
2024/03/30 04:45:54;;;;;;;8.20;3.40;;;;;;;;;;5029681;28;20030;-69
2024/03/30 04:48:19;;;;;;;5.50;3.05;;;;;;;;;;5028043;28;20092;-69
2024/03/30 04:50:45;;;;;;;7.97;4.28;;;;;;;;;;5029309;28;20061;-69
2024/03/30 04:53:15;;;;;;;5.70;3.33;;;;;;;;;;5029617;28;20025;-69
2024/03/30 04:55:40;;;;;;;6.72;3.55;;;;;;;;;;5028542;28;20032;-69
2024/03/30 04:58:05;;;;;;;7.43;2.77;;;;;;;;;;5029027;28;20033;-69
2024/03/30 05:00:33;;;;;;;4.53;2.77;;;;;;;;;;5028642;28;20385;-69
2024/03/30 05:02:58;;;;;;;9.68;3.05;;;;;;;;;;5029461;28;20288;-69
2024/03/30 05:05:23;;;;;;;4.73;2.80;;;;;;;;;;5029528;28;20365;-69
2024/03/30 05:07:48;;;;;;;4.50;2.60;;;;;;;;;;5028477;28;20280;-68
2024/03/30 05:10:13;;;;;;;5.70;3.00;;;;;;;;;;5028741;28;20359;-69
2024/03/30 05:12:39;;;;;;;6.45;3.22;;;;;;;;;;5029633;28;20252;-69
2024/03/30 05:15:05;;;;;;;10.85;2.40;;;;;;;;;;5029730;28;20447;-69
2024/03/30 05:17:30;;;;;;;4.65;2.53;;;;;;;;;;5028136;28;20053;-68
2024/03/30 05:22:39;;;;;;;11.00;2.70;;;;;;;;;;5029177;28;20055;-69
2024/03/30 05:25:05;;;;;;;8.17;2.80;;;;;;;;;;5028765;28;20500;-69
2024/03/30 05:27:30;;;;;;;6.77;2.20;;;;;;;;;;5027134;28;20284;-69
2024/03/30 05:29:57;;;;;;;7.13;2.70;;;;;;;;;;5028677;28;20268;-69
2024/03/30 05:32:23;;;;;;;5.93;2.40;;;;;;;;;;5029219;28;20257;-69
2024/03/30 05:34:48;;;;;;;11.85;2.30;;;;;;;;;;5026077;28;20036;-69
2024/03/30 05:37:13;;;;;;;8.25;2.50;;;;;;;;;;5027682;28;20064;-69
2024/03/30 05:39:38;;;;;;;5.70;2.50;;;;;;;;;;5028468;28;20029;-69
2024/03/30 05:42:03;;;;;;;7.70;3.03;;;;;;;;;;5029104;28;20339;-69
2024/03/30 05:44:28;;;;;;;14.23;2.95;;;;;;;;;;5028590;28;20280;-69
2024/03/30 05:46:54;;;;;;;6.07;2.28;;;;;;;;;;5028394;28;20029;-69
2024/03/30 05:49:20;;;;;;;12.02;2.40;;;;;;;;;;5028141;28;20427;-69
2024/03/30 05:51:45;;;;;;;3.90;2.10;;;;;;;;;;5029150;28;20468;-69
2024/03/30 05:54:10;;;;;;;9.13;2.00;;;;;;;;;;5028683;28;20270;-69
2024/03/30 05:56:35;;;;;;;6.45;2.03;;;;;;;;;;5028303;28;20095;-69
2024/03/30 05:59:00;;;;;;;4.17;1.53;;;;;;;;;;5027959;28;20025;-69
2024/03/30 06:01:26;;;;;;;6.97;2.30;;;;;;;;;;5027443;28;20279;-69
2024/03/30 06:03:51;;;;;;;5.13;2.17;;;;;;;;;;5028838;28;20794;-69
2024/03/30 06:06:16;;;;;;;4.03;1.97;;;;;;;;;;5027569;28;20256;-69
2024/03/30 06:08:41;;;;;;;8.40;2.37;;;;;;;;;;5029556;28;20335;-69
2024/03/30 06:11:06;;;;;;;5.37;1.60;;;;;;;;;;5032499;28;20267;-69
2024/03/30 06:13:32;;;;;;;4.73;1.57;;;;;;;;;;5032865;28;20259;-69
2024/03/30 06:16:06;;;;;;;3.33;1.50;;;;;;;;;;5032606;28;20264;-69
2024/03/30 06:18:31;;;;;;;3.90;1.58;;;;;;;;;;5029643;28;20086;-69
2024/03/30 06:20:56;;;;;;;5.80;1.30;;;;;;;;;;5031857;28;20033;-69
2024/03/30 06:23:22;;;;;;;3.72;0.75;;;;;;;;;;5032460;28;20025;-69
2024/03/30 06:25:47;;;;;;;1.90;0.73;;;;;;;;;;5030868;28;20030;-69
2024/03/30 06:28:12;;;;;;;1.63;0.80;;;;;;;;;;5029305;28;20272;-68
2024/03/30 06:30:37;;;;;;;3.50;1.33;;;;;;;;;;5031079;28;20268;-69
2024/03/30 06:33:02;;;;;;;5.85;1.88;;;;;;;;;;5032073;28;20279;-69
2024/03/30 06:35:30;;;;;;;1.20;0.70;;;;;;;;;;5032009;28;20051;-69
2024/03/30 06:37:55;;;;;;;3.17;1.40;;;;;;;;;;5031621;28;20025;-69
2024/03/30 06:45:48;;;;;;;6.38;1.10;;;;;;;;;;5025188;28;20109;-69
2024/03/30 06:48:13;;;;;;;3.03;1.25;;;;;;;;;;5030991;28;20100;-68
2024/03/30 06:50:38;;;;;;;2.87;1.13;;;;;;;;;;5032157;28;20021;-69
2024/03/30 06:53:04;;;;;;;12.93;1.53;;;;;;;;;;5032084;28;20252;-68
2024/03/30 06:55:29;;;;;;;3.47;1.30;;;;;;;;;;5032118;28;20263;-69
2024/03/30 06:57:54;;;;;;;1.08;0.73;;;;;;;;;;5027189;28;20416;-68
2024/03/30 07:00:20;;;;;;;2.97;1.57;;;;;;;;;;5029989;28;20053;-69
2024/03/30 07:02:45;;;;;;;8.43;1.15;;;;;;;;;;5031873;28;20260;-68
2024/03/30 07:05:10;;;;;;;14.37;2.00;;;;;;;;;;5032150;28;20032;-69
2024/03/30 07:07:35;;;;;;;8.20;1.87;;;;;;;;;;5030992;28;20336;-69
2024/03/30 07:10:00;;;;;;;3.87;1.47;;;;;;;;;;5029403;28;20775;-69
2024/03/30 07:12:25;;;;;;;7.87;1.30;;;;;;;;;;5030948;28;20256;-68
2024/03/30 07:14:51;;;;;;;3.97;1.37;;;;;;;;;;5031764;28;20270;-68
2024/03/30 07:17:16;;;;;;;17.83;1.80;;;;;;;;;;5032217;28;20281;-68
2024/03/30 07:19:41;;;;;;;7.33;1.90;;;;;;;;;;5029722;28;20021;-69
2024/03/30 07:22:06;;;;;;;9.87;2.30;;;;;;;;;;5031373;28;20271;-68
2024/03/30 07:24:32;;;;;;;3.00;1.33;;;;;;;;;;5029550;28;20284;-68
2024/03/30 07:26:58;;;;;;;2.50;1.40;;;;;;;;;;5028823;28;20343;-69
2024/03/30 07:29:23;;;;;;;4.28;1.65;;;;;;;;;;5028187;28;20477;-68
2024/03/30 07:31:49;;;;;;;7.03;1.90;;;;;;;;;;5018386;28;20022;-69
2024/03/30 07:34:14;;;;;;;3.90;1.67;;;;;;;;;;5029352;28;20044;-69
2024/03/30 07:36:39;;;;;;;2.57;1.30;;;;;;;;;;5027040;28;20084;-69
2024/03/30 07:39:04;;;;;;;5.80;2.00;;;;;;;;;;5027940;28;20299;-69
2024/03/30 07:41:29;;;;;;;7.57;1.07;;;;;;;;;;5026913;28;20264;-68
2024/03/30 07:43:55;;;;;;;12.40;2.30;;;;;;;;;;5028808;28;20319;-69
2024/03/30 07:46:20;;;;;;;2.60;0.83;;;;;;;;;;5028551;28;20308;-69
2024/03/30 07:48:45;;;;;;;6.40;1.73;;;;;;;;;;5025654;28;20607;-68
2024/03/30 07:51:10;;;;;;;13.23;1.33;;;;;;;;;;5028397;28;20268;-69
2024/03/30 07:53:35;;;;;;;6.50;1.60;;;;;;;;;;5028360;28;20263;-69
2024/03/30 07:56:01;;;;;;;3.47;1.37;;;;;;;;;;5026473;28;20048;-69
2024/03/30 07:58:26;;;;;;;8.97;1.13;;;;;;;;;;5024262;28;20922;-69
2024/03/30 08:00:51;;;;;;;4.60;1.10;;;;;;;;;;5028465;28;20252;-68
2024/03/30 08:03:16;;;;;;;4.37;1.63;;;;;;;;;;5028870;28;20374;-68
2024/03/30 08:05:51;;;;;;;7.90;1.30;;;;;;;;;;5028534;28;20303;-68
2024/03/30 08:08:16;;;;;;;2.53;0.88;;;;;;;;;;5027988;28;20268;-69
2024/03/30 08:10:41;;;;;;;4.03;1.40;;;;;;;;;;5023544;28;20103;-68
2024/03/30 08:13:07;;;;;;;7.20;1.30;;;;;;;;;;5031601;28;20272;-69
2024/03/30 08:15:36;;;;;;;2.08;0.70;;;;;;;;;;5027781;28;20333;-69
2024/03/30 08:18:01;;;;;;;3.03;1.15;;;;;;;;;;5027873;28;20028;-69
2024/03/30 08:20:26;;;;;;;5.88;1.02;;;;;;;;;;5026879;28;20100;-69
2024/03/30 08:22:52;;;;;;;1.50;1.13;;;;;;;;;;5028046;28;20554;-68
2024/03/30 08:25:17;;;;;;;25.13;4.57;;;;;;;;;;5025107;28;20280;-69
2024/03/30 08:27:42;;;;;;;7.83;1.67;;;;;;;;;;5027901;28;20824;-69
2024/03/30 08:30:07;;;;;;;3.10;1.50;;;;;;;;;;5027388;28;20264;-69
2024/03/30 08:32:33;;;;;;;12.98;1.98;;;;;;;;;;5025411;28;20280;-69
2024/03/30 08:34:58;;;;;;;12.07;1.83;;;;;;;;;;5027896;28;20076;-69
2024/03/30 08:37:23;;;;;;;1.93;0.70;;;;;;;;;;5028190;28;20275;-68
2024/03/30 08:39:48;;;;;;;7.35;1.35;;;;;;;;;;5021915;28;20701;-69
2024/03/30 08:42:13;;;;;;;12.98;0.88;;;;;;;;;;5023354;28;20488;-69
2024/03/30 08:44:39;;;;;;;10.33;1.27;;;;;;;;;;5023558;28;20060;-69
2024/03/30 08:47:04;;;;;;;9.20;1.20;;;;;;;;;;5027782;28;20607;-69
2024/03/30 08:49:29;;;;;;;15.10;2.13;;;;;;;;;;5026743;28;20256;-69
2024/03/30 08:51:55;;;;;;;7.50;2.10;;;;;;;;;;5025609;28;20022;-69
2024/03/30 08:54:20;;;;;;;11.02;1.60;;;;;;;;;;5027169;28;20275;-69
2024/03/30 08:56:45;;;;;;;4.20;1.37;;;;;;;;;;5027439;28;20531;-68
2024/03/30 08:59:10;;;;;;;12.43;1.60;;;;;;;;;;5027326;28;20327;-69
2024/03/30 09:01:37;;;;;;;5.40;1.37;;;;;;;;;;5026599;28;20280;-69
2024/03/30 09:04:02;;;;;;;7.18;1.35;;;;;;;;;;5027629;28;20272;-69
2024/03/30 09:06:27;;;;;;;10.77;1.87;;;;;;;;;;5026603;28;20063;-69
2024/03/30 09:08:52;;;;;;;18.33;2.08;;;;;;;;;;5027527;28;20256;-69
2024/03/30 09:11:17;;;;;;;22.80;2.30;;;;;;;;;;5027213;28;20020;-69
2024/03/30 09:13:43;;;;;;;13.83;2.87;;;;;;;;;;5026914;28;20296;-69
2024/03/30 09:16:08;;;;;;;7.95;1.63;;;;;;;;;;5022901;28;20705;-69
2024/03/30 09:18:33;;;;;;;21.50;2.78;;;;;;;;;;5025305;28;20078;-69
2024/03/30 09:20:59;;;;;;;12.68;2.58;;;;;;;;;;5027639;28;20406;-69
2024/03/30 09:23:24;;;;;;;9.50;2.03;;;;;;;;;;5026085;28;20052;-68
2024/03/30 09:25:50;;;;;;;15.98;1.58;;;;;;;;;;5026333;28;20452;-69
2024/03/30 09:28:15;;;;;;;19.50;1.52;;;;;;;;;;5027757;28;20139;-69
2024/03/30 09:30:40;;;;;;;11.98;1.27;;;;;;;;;;5024994;28;20120;-69
2024/03/30 09:33:06;;;;;;;3.47;1.35;;;;;;;;;;5026604;28;20038;-69
2024/03/30 09:35:31;;;;;;;1.55;0.80;;;;;;;;;;5025859;28;20029;-69
2024/03/30 09:37:56;;;;;;;9.07;1.23;;;;;;;;;;5025951;28;20315;-69
2024/03/30 09:40:21;;;;;;;18.42;2.90;;;;;;;;;;5026713;28;20106;-69
2024/03/30 09:42:49;;;;;;;24.60;2.70;;;;;;;;;;5027197;28;20026;-69
2024/03/30 09:45:14;;;;;;;13.43;3.75;;;;;;;;;;5025553;28;20290;-69
2024/03/30 09:47:40;;;;;;;10.60;1.80;;;;;;;;;;5024372;28;20422;-69
2024/03/30 09:50:10;;;;;;;30.67;3.33;;;;;;;;;;5026807;28;20018;-69
2024/03/30 09:52:39;;;;;;;10.55;2.38;;;;;;;;;;5024972;28;20044;-69
2024/03/30 09:55:10;;;;;;;29.80;3.40;;;;;;;;;;5024995;28;20025;-69
2024/03/30 09:57:37;;;;;;;20.05;2.20;;;;;;;;;;5025467;28;20029;-69
2024/03/30 10:00:03;;;;;;;28.83;3.20;;;;;;;;;;5027598;28;20022;-69
2024/03/30 10:02:29;;;;;;;15.23;2.97;;;;;;;;;;5026224;28;20046;-70
2024/03/30 10:04:55;;;;;;;13.40;2.80;;;;;;;;;;5027565;28;20518;-69
2024/03/30 10:07:27;;;;;;;17.20;4.03;;;;;;;;;;5027291;28;20060;-69
2024/03/30 10:09:54;;;;;;;24.20;2.78;;;;;;;;;;5027588;28;20381;-69
2024/03/30 10:12:42;;;;;;;33.35;3.40;;;;;;;;;;5028414;28;20017;-69
2024/03/30 10:15:10;;;;;;;32.10;3.05;;;;;;;;;;5024520;28;20120;-69
2024/03/30 10:17:35;;;;;;;32.30;4.65;;;;;;;;;;5026477;28;20029;-69
2024/03/30 10:20:02;;;;;;;24.97;3.33;;;;;;;;;;5027008;28;20071;-69
2024/03/30 10:22:27;;;;;;;24.85;3.08;;;;;;;;;;5028403;28;20695;-69
2024/03/30 10:24:52;;;;;;;18.70;2.88;;;;;;;;;;5028495;28;20052;-69
2024/03/30 10:27:18;;;;;;;14.27;3.13;;;;;;;;;;5028380;28;20396;-69
2024/03/30 10:29:43;;;;;;;7.37;2.97;;;;;;;;;;5026623;28;20021;-68
2024/03/30 10:32:09;;;;;;;29.10;2.75;;;;;;;;;;5027304;28;20014;-69
2024/03/30 10:34:34;;;;;;;48.17;4.13;;;;;;;;;;5027532;28;20029;-69
2024/03/30 10:36:59;;;;;;;21.10;3.17;;;;;;;;;;5023299;28;20494;-70
2024/03/30 10:39:26;;;;;;;39.67;3.67;;;;;;;;;;5027605;28;20318;-69
2024/03/30 10:41:52;;;;;;;25.35;3.00;;;;;;;;;;5026793;28;20337;-69
2024/03/30 10:44:24;;;;;;;30.98;3.83;;;;;;;;;;5027981;28;20040;-69
2024/03/30 10:46:49;;;;;;;28.77;4.18;;;;;;;;;;5025644;28;20017;-69
2024/03/30 10:49:14;;;;;;;12.35;4.15;;;;;;;;;;5028082;28;20014;-69
2024/03/30 10:51:39;;;;;;;32.63;4.03;;;;;;;;;;5028132;28;20049;-69
2024/03/30 10:54:05;;;;;;;12.82;2.85;;;;;;;;;;5027555;28;20374;-69
2024/03/30 10:56:31;;;;;;;35.67;5.13;;;;;;;;;;5031145;28;20029;-68
2024/03/30 10:59:00;;;;;;;26.23;2.90;;;;;;;;;;5030411;28;20033;-69
2024/03/30 11:01:26;;;;;;;23.55;3.03;;;;;;;;;;5029845;28;20284;-69
2024/03/30 11:03:51;;;;;;;17.90;3.22;;;;;;;;;;5030589;28;20122;-69
2024/03/30 11:06:16;;;;;;;40.60;5.00;;;;;;;;;;5030601;28;20106;-69
2024/03/30 11:08:42;;;;;;;14.13;3.70;;;;;;;;;;5031588;28;20029;-69
2024/03/30 11:11:07;;;;;;;17.10;3.00;;;;;;;;;;5031894;28;20013;-69
2024/03/30 11:13:32;;;;;;;27.60;3.97;;;;;;;;;;5031854;28;20033;-69
2024/03/30 11:15:58;;;;;;;33.37;3.20;;;;;;;;;;5031809;28;20036;-69
2024/03/30 11:18:28;;;;;;;13.48;2.28;;;;;;;;;;5030496;28;20288;-69
2024/03/30 11:20:59;;;;;;;11.30;2.25;;;;;;;;;;5029999;28;20022;-69
2024/03/30 11:23:43;;;;;;;49.72;3.33;;;;;;;;;;5029717;28;20026;-68
2024/03/30 11:26:09;;;;;;;21.98;2.08;;;;;;;;;;5030053;28;20017;-68
2024/03/30 11:28:42;;;;;;;18.50;4.30;;;;;;;;;;5030770;28;20014;-69
2024/03/30 11:31:17;;;;;;;9.25;2.20;;;;;;;;;;5030004;28;20104;-69
2024/03/30 11:33:48;;;;;;;21.23;3.35;;;;;;;;;;5030282;28;20025;-69
2024/03/30 11:36:40;;;;;;;19.38;3.15;;;;;;;;;;5030884;28;20026;-69
2024/03/30 11:39:10;;;;;;;10.85;2.70;;;;;;;;;;5025318;28;20029;-69
2024/03/30 11:41:36;;;;;;;28.85;4.07;;;;;;;;;;5030754;28;20022;-69
2024/03/30 11:44:06;;;;;;;16.00;2.47;;;;;;;;;;5028810;28;20022;-69
2024/03/30 11:46:31;;;;;;;31.02;5.20;;;;;;;;;;5030448;28;20095;-69
2024/03/30 11:48:57;;;;;;;35.85;4.82;;;;;;;;;;5030771;28;20443;-69
2024/03/30 11:51:27;;;;;;;11.15;2.80;;;;;;;;;;5030935;28;20024;-69
2024/03/30 11:53:52;;;;;;;5.10;2.22;;;;;;;;;;5028868;28;20112;-69
2024/03/30 11:56:18;;;;;;;42.23;5.43;;;;;;;;;;5030838;28;20097;-69
2024/03/30 11:58:43;;;;;;;40.90;3.67;;;;;;;;;;5030485;28;20291;-69
2024/03/30 12:01:10;;;;;;;47.92;6.03;;;;;;;;;;5028135;28;20032;-69
2024/03/30 12:03:36;;;;;;;20.60;2.75;;;;;;;;;;5028861;28;20112;-69
2024/03/30 12:06:03;;;;;;;13.15;3.78;;;;;;;;;;5030431;28;20053;-69
2024/03/30 12:08:28;;;;;;;64.95;7.50;;;;;;;;;;5030604;28;20017;-69
2024/03/30 12:10:59;;;;;;;47.50;5.80;;;;;;;;;;5030349;28;20068;-69
2024/03/30 12:13:28;;;;;;;28.63;3.53;;;;;;;;;;5029818;28;20026;-69
2024/03/30 12:15:55;;;;;;;36.20;4.55;;;;;;;;;;5030211;28;20014;-69
2024/03/30 12:18:20;;;;;;;42.55;4.43;;;;;;;;;;5030360;28;20435;-68
2024/03/30 12:20:49;;;;;;;41.38;3.75;;;;;;;;;;5030451;28;20024;-69
2024/03/30 12:23:15;;;;;;;28.27;2.67;;;;;;;;;;5029754;28;20021;-69
2024/03/30 12:25:44;;;;;;;48.60;5.72;;;;;;;;;;5030307;28;20457;-69
2024/03/30 12:28:09;;;;;;;24.40;4.30;;;;;;;;;;5024771;28;20491;-68
2024/03/30 12:30:48;;;;;;;40.20;6.13;;;;;;;;;;5026496;28;20096;-69
2024/03/30 12:33:14;;;;;;;36.72;5.82;;;;;;;;;;5026071;28;20691;-69
2024/03/30 12:35:39;;;;;;;30.48;5.32;;;;;;;;;;5029682;28;20025;-69
2024/03/30 12:38:05;;;;;;;62.17;7.72;;;;;;;;;;5029258;28;20074;-69
2024/03/30 12:40:33;;;;;;;14.80;3.60;;;;;;;;;;5028990;28;20464;-68
2024/03/30 12:42:59;;;;;;;51.28;7.05;;;;;;;;;;5025440;28;20167;-69
2024/03/30 12:45:24;;;;;;;22.80;3.30;;;;;;;;;;5027655;28;20096;-68
2024/03/30 12:47:50;;;;;;;60.45;6.78;;;;;;;;;;5027518;28;20009;-69
2024/03/30 12:50:15;;;;;;;46.60;6.63;;;;;;;;;;5030106;28;20028;-69
2024/03/30 12:52:40;;;;;;;63.00;5.10;;;;;;;;;;5029379;28;20021;-69
2024/03/30 12:55:07;;;;;;;33.13;5.22;;;;;;;;;;5029307;28;20244;-69
2024/03/30 12:57:33;;;;;;;38.15;4.90;;;;;;;;;;5029129;28;20036;-68
2024/03/30 12:59:58;;;;;;;35.72;4.32;;;;;;;;;;5027059;28;20026;-68
2024/03/30 13:02:24;;;;;;;44.25;4.65;;;;;;;;;;5029148;28;20114;-68
2024/03/30 13:04:49;;;;;;;20.93;4.10;;;;;;;;;;5028825;28;20512;-69
2024/03/30 13:07:16;;;;;;;46.30;6.80;;;;;;;;;;5027567;28;20286;-69
2024/03/30 13:09:41;;;;;;;26.73;3.38;;;;;;;;;;5029071;28;20256;-69
2024/03/30 13:12:07;;;;;;;34.23;3.33;;;;;;;;;;5029054;28;20102;-69
2024/03/30 13:14:36;;;;;;;37.38;4.57;;;;;;;;;;5028525;28;20627;-68
2024/03/30 13:17:05;;;;;;;33.97;3.67;;;;;;;;;;5027958;28;20107;-69
2024/03/30 13:19:30;;;;;;;43.23;4.63;;;;;;;;;;5028977;28;20456;-69
2024/03/30 13:21:56;;;;;;;38.35;5.35;;;;;;;;;;5029368;28;20017;-69
2024/03/30 13:24:21;;;;;;;34.88;3.67;;;;;;;;;;5029319;28;20043;-69
2024/03/30 13:26:46;;;;;;;31.00;3.17;;;;;;;;;;5028492;28;20741;-68
2024/03/30 13:29:11;;;;;;;46.00;4.93;;;;;;;;;;5028983;28;20421;-69
2024/03/30 13:31:36;;;;;;;35.93;3.13;;;;;;;;;;5028771;28;20260;-69
2024/03/30 13:34:02;;;;;;;30.47;4.17;;;;;;;;;;5028756;28;20267;-69
2024/03/30 13:36:27;;;;;;;47.23;3.80;;;;;;;;;;5027145;28;20766;-69
2024/03/30 13:38:53;;;;;;;29.40;4.07;;;;;;;;;;5028011;28;20270;-69
2024/03/30 13:41:18;;;;;;;27.23;3.97;;;;;;;;;;5024868;28;20508;-68
2024/03/30 13:43:43;;;;;;;45.58;5.00;;;;;;;;;;5028713;28;20330;-69
2024/03/30 13:46:09;;;;;;;19.75;2.95;;;;;;;;;;5025417;28;20526;-69
2024/03/30 13:48:34;;;;;;;13.30;2.33;;;;;;;;;;5026057;28;20036;-69
2024/03/30 13:50:59;;;;;;;26.92;4.22;;;;;;;;;;5031013;28;20061;-69
2024/03/30 13:53:24;;;;;;;26.50;3.77;;;;;;;;;;5028893;28;20047;-68
2024/03/30 13:55:50;;;;;;;30.47;3.37;;;;;;;;;;5029555;28;20255;-69
2024/03/30 13:58:19;;;;;;;17.45;4.00;;;;;;;;;;5029051;28;20257;-68
2024/03/30 14:00:44;;;;;;;13.65;1.77;;;;;;;;;;5028866;28;20488;-69
2024/03/30 14:03:09;;;;;;;35.17;2.80;;;;;;;;;;5027294;28;20091;-69
2024/03/30 14:05:35;;;;;;;21.70;2.92;;;;;;;;;;5028433;28;20029;-69
2024/03/30 14:08:00;;;;;;;29.77;3.00;;;;;;;;;;5028568;28;20476;-69
2024/03/30 14:10:25;;;;;;;14.85;1.85;;;;;;;;;;5028317;28;20017;-69
2024/03/30 14:12:50;;;;;;;19.33;2.60;;;;;;;;;;5028756;28;20021;-69
2024/03/30 14:15:15;;;;;;;25.33;2.75;;;;;;;;;;5026723;28;20272;-69
2024/03/30 14:17:43;;;;;;;12.90;1.77;;;;;;;;;;5028663;28;20044;-69
2024/03/30 14:20:08;;;;;;;19.98;3.20;;;;;;;;;;5028477;28;20481;-69
2024/03/30 14:22:34;;;;;;;22.17;2.83;;;;;;;;;;5026980;28;20419;-68
2024/03/30 14:24:59;;;;;;;16.57;2.20;;;;;;;;;;5028465;28;20036;-69
2024/03/30 14:27:24;;;;;;;4.93;1.33;;;;;;;;;;5028086;28;20256;-69
2024/03/30 14:29:49;;;;;;;35.55;2.40;;;;;;;;;;5028120;28;20036;-69
2024/03/30 14:32:15;;;;;;;9.57;1.67;;;;;;;;;;5030897;28;20025;-69
2024/03/30 14:34:41;;;;;;;10.73;1.73;;;;;;;;;;5030626;28;20265;-69
2024/03/30 14:37:11;;;;;;;12.00;1.67;;;;;;;;;;5032045;28;20029;-68
2024/03/30 14:39:36;;;;;;;24.52;2.38;;;;;;;;;;5032172;28;20314;-69